sensor_id;sensor_type;location;lat;lon;timestamp;pressure;altitude;pressure_sealevel;temperature;humidity
50592;BME280;36548;50.506;30.834;2023-01-25T01:05:05;101882.87;;;-0.05;78.79
50592;BME280;36548;50.506;30.834;2023-01-25T01:06:21;101883.80;;;0.08;77.99
50592;BME280;36548;50.506;30.834;2023-01-25T01:07:33;101875.88;;;0.05;77.31
50592;BME280;36548;50.506;30.834;2023-01-25T01:08:42;101891.77;;;0.14;76.66
50592;BME280;36548;50.506;30.834;2023-01-25T01:09:52;101890.92;;;0.21;75.96
50592;BME280;36548;50.506;30.834;2023-01-25T01:11:03;101887.44;;;0.33;75.38
50592;BME280;36548;50.506;30.834;2023-01-25T01:12:13;101881.33;;;0.48;74.91
50592;BME280;36548;50.506;30.834;2023-01-25T01:13:23;101888.44;;;0.64;74.22
50592;BME280;36548;50.506;30.834;2023-01-25T01:16:37;101878.82;;;0.96;73.06
50592;BME280;36548;50.506;30.834;2023-01-25T01:17:47;101870.89;;;1.19;71.90
50592;BME280;36548;50.506;30.834;2023-01-25T01:18:57;101877.95;;;1.35;71.59
50592;BME280;36548;50.506;30.834;2023-01-25T01:20:07;101879.72;;;1.49;70.64
50592;BME280;36548;50.506;30.834;2023-01-25T01:21:23;101884.98;;;1.75;70.22
50592;BME280;36548;50.506;30.834;2023-01-25T01:22:33;101880.55;;;1.76;69.80
50592;BME280;36548;50.506;30.834;2023-01-25T01:23:43;101884.95;;;1.83;68.71
50592;BME280;36548;50.506;30.834;2023-01-25T01:24:53;101884.93;;;1.94;68.79
50592;BME280;36548;50.506;30.834;2023-01-25T01:26:04;101879.60;;;2.00;68.52
50592;BME280;36548;50.506;30.834;2023-01-25T01:27:15;101877.86;;;1.99;68.11
50592;BME280;36548;50.506;30.834;2023-01-25T01:28:24;101882.29;;;1.92;67.58
50592;BME280;36548;50.506;30.834;2023-01-25T01:29:33;101890.23;;;1.86;67.98
50592;BME280;36548;50.506;30.834;2023-01-25T01:30:44;101879.66;;;1.81;68.55
50592;BME280;36548;50.506;30.834;2023-01-25T01:31:53;101882.33;;;1.77;68.62
50592;BME280;36548;50.506;30.834;2023-01-25T01:33:07;101886.73;;;1.73;68.86
50592;BME280;36548;50.506;30.834;2023-01-25T01:34:16;101885.88;;;1.69;68.68
50592;BME280;36548;50.506;30.834;2023-01-25T01:35:30;101881.47;;;1.65;68.57
50592;BME280;36548;50.506;30.834;2023-01-25T01:36:40;101874.41;;;1.61;68.45
50592;BME280;36548;50.506;30.834;2023-01-25T01:37:55;101867.33;;;1.65;68.47
50592;BME280;36548;50.506;30.834;2023-01-25T01:39:07;101875.28;;;1.52;68.97
50592;BME280;36548;50.506;30.834;2023-01-25T01:40:19;101876.19;;;1.51;69.04
50592;BME280;36548;50.506;30.834;2023-01-25T01:41:30;101876.16;;;1.50;69.11
50592;BME280;36548;50.506;30.834;2023-01-25T01:43:03;101870.00;;;1.49;68.92
50592;BME280;36548;50.506;30.834;2023-01-25T01:44:20;101872.65;;;1.48;68.85
50592;BME280;36548;50.506;30.834;2023-01-25T01:45:51;101880.60;;;1.45;68.61
50592;BME280;36548;50.506;30.834;2023-01-25T01:47:03;101873.55;;;1.39;68.46
50592;BME280;36548;50.506;30.834;2023-01-25T01:51:48;101876.19;;;1.41;68.63
50592;BME280;36548;50.506;30.834;2023-01-25T01:53:00;101872.65;;;1.25;68.00
50592;BME280;36548;50.506;30.834;2023-01-25T01:55:42;101864.73;;;1.15;67.73
50592;BME280;36548;50.506;30.834;2023-01-25T01:57:00;101868.26;;;1.25;67.80
50592;BME280;36548;50.506;30.834;2023-01-25T01:58:11;101868.25;;;1.14;67.98
50592;BME280;36548;50.506;30.834;2023-01-25T01:59:21;101873.55;;;1.13;67.48
50592;BME280;36548;50.506;30.834;2023-01-25T02:00:39;101870.02;;;1.18;66.75
50592;BME280;36548;50.506;30.834;2023-01-25T02:01:50;101875.30;;;1.05;66.97
50592;BME280;36548;50.506;30.834;2023-01-25T02:03:00;101864.72;;;1.06;67.58
50592;BME280;36548;50.506;30.834;2023-01-25T02:04:11;101870.00;;;1.06;67.42
50592;BME280;36548;50.506;30.834;2023-01-25T02:05:26;101862.07;;;1.06;67.47
50592;BME280;36548;50.506;30.834;2023-01-25T02:06:46;101870.87;;;1.07;67.40
50592;BME280;36548;50.506;30.834;2023-01-25T02:07:57;101861.17;;;1.04;67.07
50592;BME280;36548;50.506;30.834;2023-01-25T02:09:10;101863.82;;;1.02;66.97
50592;BME280;36548;50.506;30.834;2023-01-25T02:10:21;101867.37;;;1.01;67.10
50592;BME280;36548;50.506;30.834;2023-01-25T02:11:33;101859.41;;;1.00;67.11
50592;BME280;36548;50.506;30.834;2023-01-25T02:12:43;101857.66;;;0.99;67.08
50592;BME280;36548;50.506;30.834;2023-01-25T02:13:54;101855.00;;;0.91;66.44
50592;BME280;36548;50.506;30.834;2023-01-25T02:15:06;101856.78;;;0.88;66.76
50592;BME280;36548;50.506;30.834;2023-01-25T02:16:18;101847.95;;;0.85;67.11
50592;BME280;36548;50.506;30.834;2023-01-25T02:17:34;101848.81;;;0.84;67.37
50592;BME280;36548;50.506;30.834;2023-01-25T02:18:44;101851.46;;;0.83;67.44
50592;BME280;36548;50.506;30.834;2023-01-25T02:20:00;101839.14;;;0.83;67.52
50592;BME280;36548;50.506;30.834;2023-01-25T02:21:09;101836.50;;;0.85;67.91
50592;BME280;36548;50.506;30.834;2023-01-25T02:22:21;101844.43;;;0.87;67.49
50592;BME280;36548;50.506;30.834;2023-01-25T02:25:19;101835.61;;;0.98;67.39
50592;BME280;36548;50.506;30.834;2023-01-25T02:26:30;101844.42;;;0.88;67.52
50592;BME280;36548;50.506;30.834;2023-01-25T02:27:41;101847.94;;;0.90;67.58
50592;BME280;36548;50.506;30.834;2023-01-25T02:29:04;101843.55;;;0.89;67.25
50592;BME280;36548;50.506;30.834;2023-01-25T02:30:16;101846.20;;;0.91;67.42
50592;BME280;36548;50.506;30.834;2023-01-25T02:31:25;101845.32;;;0.95;67.84
50592;BME280;36548;50.506;30.834;2023-01-25T02:32:34;101838.25;;;0.97;67.67
50592;BME280;36548;50.506;30.834;2023-01-25T02:33:44;101843.55;;;0.98;67.39
50592;BME280;36548;50.506;30.834;2023-01-25T02:34:54;101834.73;;;0.99;67.08
50592;BME280;36548;50.506;30.834;2023-01-25T02:37:21;101840.02;;;0.99;67.10
50592;BME280;36548;50.506;30.834;2023-01-25T02:38:41;101833.87;;;0.99;67.08
50592;BME280;36548;50.506;30.834;2023-01-25T02:39:57;101840.04;;;1.09;66.86
50592;BME280;36548;50.506;30.834;2023-01-25T02:41:16;101847.09;;;0.97;67.06
50592;BME280;36548;50.506;30.834;2023-01-25T02:42:29;101839.16;;;1.00;67.53
50592;BME280;36548;50.506;30.834;2023-01-25T02:43:39;101844.44;;;1.02;67.30
50592;BME280;36548;50.506;30.834;2023-01-25T02:44:51;101833.86;;;1.02;67.00
50592;BME280;36548;50.506;30.834;2023-01-25T02:46:27;101833.87;;;1.14;67.07
50592;BME280;36548;50.506;30.834;2023-01-25T02:47:35;101843.56;;;1.06;66.96
50592;BME280;36548;50.506;30.834;2023-01-25T02:48:45;101846.20;;;1.06;66.62
50592;BME280;36548;50.506;30.834;2023-01-25T02:49:54;101845.30;;;1.04;66.50
50592;BME280;36548;50.506;30.834;2023-01-25T02:51:06;101844.44;;;1.02;66.40
50592;BME280;36548;50.506;30.834;2023-01-25T02:52:21;101840.03;;;1.13;66.53
50592;BME280;36548;50.506;30.834;2023-01-25T02:53:31;101847.09;;;0.97;65.85
50592;BME280;36548;50.506;30.834;2023-01-25T02:54:40;101847.97;;;0.93;65.67
50592;BME280;36548;50.506;30.834;2023-01-25T02:55:51;101851.48;;;0.92;65.97
50592;BME280;36548;50.506;30.834;2023-01-25T02:57:00;101850.61;;;0.92;66.06
50592;BME280;36548;50.506;30.834;2023-01-25T02:58:12;101843.55;;;0.94;66.37
50592;BME280;36548;50.506;30.834;2023-01-25T02:59:22;101837.39;;;0.95;66.25
50592;BME280;36548;50.506;30.834;2023-01-25T03:00:34;101834.73;;;0.98;66.34
50592;BME280;36548;50.506;30.834;2023-01-25T03:01:44;101831.23;;;0.96;65.69
50592;BME280;36548;50.506;30.834;2023-01-25T03:02:54;101830.33;;;0.92;65.49
50592;BME280;36548;50.506;30.834;2023-01-25T03:04:04;101832.10;;;0.93;65.85
50592;BME280;36548;50.506;30.834;2023-01-25T03:05:14;101835.62;;;0.91;65.58
50592;BME280;36548;50.506;30.834;2023-01-25T03:06:26;101832.98;;;0.88;65.20
50592;BME280;36548;50.506;30.834;2023-01-25T03:07:35;101834.73;;;0.85;65.16
50592;BME280;36548;50.506;30.834;2023-01-25T03:08:45;101835.59;;;0.84;65.26
50592;BME280;36548;50.506;30.834;2023-01-25T03:09:56;101833.86;;;0.85;65.66
50592;BME280;36548;50.506;30.834;2023-01-25T03:11:06;101833.86;;;0.87;65.78
50592;BME280;36548;50.506;30.834;2023-01-25T03:12:15;101837.36;;;0.90;66.09
50592;BME280;36548;50.506;30.834;2023-01-25T03:13:25;101827.69;;;0.92;66.02
50592;BME280;36548;50.506;30.834;2023-01-25T03:14:35;101831.20;;;0.94;65.70
50592;BME280;36548;50.506;30.834;2023-01-25T03:15:45;101832.97;;;0.94;65.64
50592;BME280;36548;50.506;30.834;2023-01-25T03:16:55;101822.40;;;0.94;65.52
50592;BME280;36548;50.506;30.834;2023-01-25T03:18:04;101834.72;;;0.90;65.25
50592;BME280;36548;50.506;30.834;2023-01-25T03:19:13;101832.08;;;0.87;65.43
50592;BME280;36548;50.506;30.834;2023-01-25T03:20:24;101834.72;;;0.87;65.73
50592;BME280;36548;50.506;30.834;2023-01-25T03:21:58;101831.20;;;0.94;65.39
50592;BME280;36548;50.506;30.834;2023-01-25T03:23:08;101842.66;;;0.85;65.60
50592;BME280;36548;50.506;30.834;2023-01-25T03:24:19;101841.78;;;0.88;66.12
50592;BME280;36548;50.506;30.834;2023-01-25T03:25:28;101845.33;;;0.92;65.91
50592;BME280;36548;50.506;30.834;2023-01-25T03:26:39;101857.64;;;0.88;64.94
50592;BME280;36548;50.506;30.834;2023-01-25T03:28:09;101857.63;;;0.80;64.72
50592;BME280;36548;50.506;30.834;2023-01-25T03:29:20;101850.56;;;0.76;65.11
50592;BME280;36548;50.506;30.834;2023-01-25T03:30:30;101844.41;;;0.74;65.05
50592;BME280;36548;50.506;30.834;2023-01-25T03:31:39;101843.53;;;0.75;65.04
50592;BME280;36548;50.506;30.834;2023-01-25T03:32:49;101851.47;;;0.74;64.37
50592;BME280;36548;50.506;30.834;2023-01-25T03:34:00;101853.20;;;0.75;64.58
50592;BME280;36548;50.506;30.834;2023-01-25T03:35:11;101854.11;;;0.74;63.95
50592;BME280;36548;50.506;30.834;2023-01-25T03:36:20;101847.92;;;0.75;63.94
50592;BME280;36548;50.506;30.834;2023-01-25T03:37:29;101844.41;;;0.76;63.73
50592;BME280;36548;50.506;30.834;2023-01-25T03:38:39;101844.41;;;0.74;63.59
50592;BME280;36548;50.506;30.834;2023-01-25T03:39:50;101845.28;;;0.75;63.82
50592;BME280;36548;50.506;30.834;2023-01-25T03:41:01;101847.95;;;0.79;64.14
50592;BME280;36548;50.506;30.834;2023-01-25T03:42:10;101845.30;;;0.84;64.14
50592;BME280;36548;50.506;30.834;2023-01-25T03:43:26;101841.80;;;0.97;63.94
50592;BME280;36548;50.506;30.834;2023-01-25T03:44:36;101849.71;;;0.90;64.14
50592;BME280;36548;50.506;30.834;2023-01-25T03:45:55;101850.61;;;0.93;63.80
50592;BME280;36548;50.506;30.834;2023-01-25T03:47:04;101846.19;;;0.94;63.62
50592;BME280;36548;50.506;30.834;2023-01-25T03:48:14;101857.64;;;0.94;63.40
50592;BME280;36548;50.506;30.834;2023-01-25T03:49:25;101850.58;;;0.90;63.00
50592;BME280;36548;50.506;30.834;2023-01-25T03:50:36;101854.13;;;0.88;63.12
50592;BME280;36548;50.506;30.834;2023-01-25T03:51:46;101854.10;;;0.86;63.44
50592;BME280;36548;50.506;30.834;2023-01-25T03:52:59;101851.48;;;0.88;63.70
50592;BME280;36548;50.506;30.834;2023-01-25T03:54:21;101855.88;;;0.89;63.77
50592;BME280;36548;50.506;30.834;2023-01-25T03:55:32;101856.78;;;0.88;63.31
50592;BME280;36548;50.506;30.834;2023-01-25T03:56:47;101841.80;;;0.99;63.55
50592;BME280;36548;50.506;30.834;2023-01-25T03:57:58;101854.13;;;0.89;63.50
50592;BME280;36548;50.506;30.834;2023-01-25T03:59:07;101854.13;;;0.89;63.19
50592;BME280;36548;50.506;30.834;2023-01-25T04:00:18;101854.13;;;0.89;62.92
50592;BME280;36548;50.506;30.834;2023-01-25T04:01:30;101852.35;;;0.93;63.38
50592;BME280;36548;50.506;30.834;2023-01-25T04:02:39;101848.84;;;0.94;62.57
50592;BME280;36548;50.506;30.834;2023-01-25T04:03:49;101848.83;;;0.98;62.76
50592;BME280;36548;50.506;30.834;2023-01-25T04:04:58;101855.89;;;1.01;62.39
50592;BME280;36548;50.506;30.834;2023-01-25T04:06:08;101845.31;;;1.02;62.54
50592;BME280;36548;50.506;30.834;2023-01-25T04:07:19;101840.91;;;1.09;62.59
50592;BME280;36548;50.506;30.834;2023-01-25T04:08:29;101850.61;;;1.10;61.76
50592;BME280;36548;50.506;30.834;2023-01-25T04:09:40;101843.55;;;1.09;61.19
50592;BME280;36548;50.506;30.834;2023-01-25T04:12:08;101836.52;;;1.24;61.42
50592;BME280;36548;50.506;30.834;2023-01-25T04:13:23;101846.22;;;1.15;61.43
50592;BME280;36548;50.506;30.834;2023-01-25T04:14:32;101847.08;;;1.21;61.49
50592;BME280;36548;50.506;30.834;2023-01-25T04:15:47;101844.45;;;1.25;61.45
50592;BME280;36548;50.506;30.834;2023-01-25T04:16:58;101840.93;;;1.28;61.16
50592;BME280;36548;50.506;30.834;2023-01-25T04:18:18;101846.21;;;1.31;60.83
50592;BME280;36548;50.506;30.834;2023-01-25T04:19:27;101840.04;;;1.33;60.69
50592;BME280;36548;50.506;30.834;2023-01-25T04:20:37;101842.69;;;1.33;60.27
50592;BME280;36548;50.506;30.834;2023-01-25T04:21:49;101840.91;;;1.32;60.23
50592;BME280;36548;50.506;30.834;2023-01-25T04:22:59;101843.57;;;1.29;59.88
50592;BME280;36548;50.506;30.834;2023-01-25T04:24:10;101842.67;;;1.15;59.23
50592;BME280;36548;50.506;30.834;2023-01-25T04:25:20;101841.81;;;1.10;59.89
50592;BME280;36548;50.506;30.834;2023-01-25T04:26:32;101837.37;;;1.02;59.97
50592;BME280;36548;50.506;30.834;2023-01-25T04:27:42;101841.80;;;0.96;59.87
50592;BME280;36548;50.506;30.834;2023-01-25T04:28:53;101851.46;;;0.84;59.83
50592;BME280;36548;50.506;30.834;2023-01-25T04:30:05;101845.28;;;0.73;60.00
50592;BME280;36548;50.506;30.834;2023-01-25T04:31:20;101847.05;;;0.79;60.41
50592;BME280;36548;50.506;30.834;2023-01-25T04:32:30;101847.02;;;0.62;60.54
50592;BME280;36548;50.506;30.834;2023-01-25T04:33:40;101852.27;;;0.54;60.42
50592;BME280;36548;50.506;30.834;2023-01-25T04:34:49;101845.22;;;0.50;60.91
50592;BME280;36548;50.506;30.834;2023-01-25T04:36:00;101848.77;;;0.52;61.45
50592;BME280;36548;50.506;30.834;2023-01-25T04:37:10;101847.89;;;0.56;61.84
50592;BME280;36548;50.506;30.834;2023-01-25T04:38:21;101853.17;;;0.58;61.57
50592;BME280;36548;50.506;30.834;2023-01-25T04:39:31;101847.02;;;0.59;61.49
50592;BME280;36548;50.506;30.834;2023-01-25T04:40:42;101842.61;;;0.61;61.81
50592;BME280;36548;50.506;30.834;2023-01-25T04:41:53;101844.38;;;0.63;61.64
50592;BME280;36548;50.506;30.834;2023-01-25T04:43:02;101842.64;;;0.65;61.62
50592;BME280;36548;50.506;30.834;2023-01-25T04:44:12;101843.51;;;0.66;61.52
50592;BME280;36548;50.506;30.834;2023-01-25T04:45:23;101840.87;;;0.66;61.53
50592;BME280;36548;50.506;30.834;2023-01-25T04:46:33;101840.87;;;0.66;61.76
50592;BME280;36548;50.506;30.834;2023-01-25T04:47:42;101844.38;;;0.66;61.67
50592;BME280;36548;50.506;30.834;2023-01-25T04:48:53;101842.64;;;0.68;62.03
50592;BME280;36548;50.506;30.834;2023-01-25T04:50:04;101841.73;;;0.68;61.91
50592;BME280;36548;50.506;30.834;2023-01-25T04:51:15;101845.28;;;0.70;62.07
50592;BME280;36548;50.506;30.834;2023-01-25T04:52:24;101850.56;;;0.72;62.17
50592;BME280;36548;50.506;30.834;2023-01-25T04:53:35;101846.15;;;0.72;62.21
50592;BME280;36548;50.506;30.834;2023-01-25T04:54:46;101841.77;;;0.74;62.34
50592;BME280;36548;50.506;30.834;2023-01-25T04:56:02;101845.30;;;0.85;61.95
50592;BME280;36548;50.506;30.834;2023-01-25T04:57:12;101838.22;;;0.72;61.86
50592;BME280;36548;50.506;30.834;2023-01-25T04:58:24;101847.05;;;0.71;61.88
50592;BME280;36548;50.506;30.834;2023-01-25T04:59:33;101845.28;;;0.73;62.07
50592;BME280;36548;50.506;30.834;2023-01-25T05:00:42;101844.41;;;0.74;62.12
50592;BME280;36548;50.506;30.834;2023-01-25T05:01:52;101847.92;;;0.75;62.02
50592;BME280;36548;50.506;30.834;2023-01-25T05:03:02;101847.92;;;0.75;61.82
50592;BME280;36548;50.506;30.834;2023-01-25T05:04:12;101854.11;;;0.77;62.34
50592;BME280;36548;50.506;30.834;2023-01-25T05:05:23;101851.47;;;0.74;61.61
50592;BME280;36548;50.506;30.834;2023-01-25T05:06:32;101855.85;;;0.72;61.51
50592;BME280;36548;50.506;30.834;2023-01-25T05:07:42;101851.44;;;0.71;61.98
50592;BME280;36548;50.506;30.834;2023-01-25T05:08:52;101858.50;;;0.68;61.83
50592;BME280;36548;50.506;30.834;2023-01-25T05:10:03;101858.50;;;0.67;61.93
50592;BME280;36548;50.506;30.834;2023-01-25T05:11:13;101863.78;;;0.64;61.84
50592;BME280;36548;50.506;30.834;2023-01-25T05:12:32;101852.31;;;0.62;61.94
50592;BME280;36548;50.506;30.834;2023-01-25T05:13:44;101854.08;;;0.63;62.26
50592;BME280;36548;50.506;30.834;2023-01-25T05:14:55;101859.37;;;0.63;62.26
50592;BME280;36548;50.506;30.834;2023-01-25T05:16:05;101860.23;;;0.63;62.25
50592;BME280;36548;50.506;30.834;2023-01-25T05:17:16;101855.81;;;0.58;61.69
50592;BME280;36548;50.506;30.834;2023-01-25T05:18:26;101856.69;;;0.57;61.99
50592;BME280;36548;50.506;30.834;2023-01-25T05:19:37;101856.69;;;0.55;61.99
50592;BME280;36548;50.506;30.834;2023-01-25T05:20:55;101852.31;;;0.56;62.22
50592;BME280;36548;50.506;30.834;2023-01-25T05:22:05;101852.31;;;0.57;62.42
50592;BME280;36548;50.506;30.834;2023-01-25T05:23:20;101855.81;;;0.58;62.19
50592;BME280;36548;50.506;30.834;2023-01-25T05:24:35;101846.15;;;0.71;62.28
50592;BME280;36548;50.506;30.834;2023-01-25T05:25:47;101850.53;;;0.59;61.90
50592;BME280;36548;50.506;30.834;2023-01-25T05:27:18;101852.31;;;0.59;62.03
50592;BME280;36548;50.506;30.834;2023-01-25T05:28:29;101848.80;;;0.61;62.28
50592;BME280;36548;50.506;30.834;2023-01-25T05:29:47;101842.64;;;0.73;62.41
50592;BME280;36548;50.506;30.834;2023-01-25T05:30:56;101842.64;;;0.64;62.28
50592;BME280;36548;50.506;30.834;2023-01-25T05:32:09;101843.52;;;0.64;62.38
50592;BME280;36548;50.506;30.834;2023-01-25T05:33:21;101846.16;;;0.66;62.26
50592;BME280;36548;50.506;30.834;2023-01-25T05:34:30;101847.02;;;0.66;62.22
50592;BME280;36548;50.506;30.834;2023-01-25T05:35:39;101843.51;;;0.66;62.12
50592;BME280;36548;50.506;30.834;2023-01-25T05:36:48;101837.35;;;0.67;62.33
50592;BME280;36548;50.506;30.834;2023-01-25T09:46:40;101809.69;;;-0.29;71.12
50592;BME280;36548;50.506;30.834;2023-01-25T09:53:58;101795.91;;;0.50;67.44
50592;BME280;36548;50.506;30.834;2023-01-25T09:55:17;101803.84;;;0.46;67.54
50592;BME280;36548;50.506;30.834;2023-01-25T09:56:35;101796.78;;;0.51;67.64
50592;BME280;36548;50.506;30.834;2023-01-25T09:57:47;101792.41;;;0.55;67.51
50592;BME280;36548;50.506;30.834;2023-01-25T09:59:04;101800.33;;;0.58;67.17
50592;BME280;36548;50.506;30.834;2023-01-25T10:00:33;101798.58;;;0.61;67.48
50592;BME280;36548;50.506;30.834;2023-01-25T10:04:45;101778.33;;;0.88;66.99
50592;BME280;36548;50.506;30.834;2023-01-25T10:05:58;101785.38;;;0.78;66.73
50592;BME280;36548;50.506;30.834;2023-01-25T10:08:48;101771.29;;;0.79;65.72
50592;BME280;36548;50.506;30.834;2023-01-25T10:10:06;101773.92;;;0.70;66.25
50592;BME280;36548;50.506;30.834;2023-01-25T10:11:23;101771.27;;;0.72;66.24
50592;BME280;36548;50.506;30.834;2023-01-25T10:12:36;101773.91;;;0.75;66.63
50592;BME280;36548;50.506;30.834;2023-01-25T10:13:45;101766.88;;;0.80;66.54
50592;BME280;36548;50.506;30.834;2023-01-25T10:14:56;101765.99;;;0.84;66.51
50592;BME280;36548;50.506;30.834;2023-01-25T10:16:20;101756.30;;;0.94;65.58
50592;BME280;36548;50.506;30.834;2023-01-25T10:17:37;101758.94;;;0.83;65.77
50592;BME280;36548;50.506;30.834;2023-01-25T10:19:09;101757.19;;;0.85;65.85
50592;BME280;36548;50.506;30.834;2023-01-25T10:20:23;101752.78;;;0.81;65.01
50592;BME280;36548;50.506;30.834;2023-01-25T10:21:41;101743.95;;;0.90;65.47
50592;BME280;36548;50.506;30.834;2023-01-25T10:25:42;101753.64;;;0.86;65.73
50592;BME280;36548;50.506;30.834;2023-01-25T10:26:56;101750.11;;;0.90;65.54
50592;BME280;36548;50.506;30.834;2023-01-25T10:28:42;101743.96;;;0.99;65.44
50592;BME280;36548;50.506;30.834;2023-01-25T10:29:55;101752.78;;;0.92;65.88
50592;BME280;36548;50.506;30.834;2023-01-25T10:31:13;101745.72;;;0.92;65.05
50592;BME280;36548;50.506;30.834;2023-01-25T10:32:28;101735.13;;;1.00;65.00
50592;BME280;36548;50.506;30.834;2023-01-25T10:33:45;101736.90;;;0.89;65.05
50592;BME280;36548;50.506;30.834;2023-01-25T10:34:57;101731.62;;;0.87;65.22
50592;BME280;36548;50.506;30.834;2023-01-25T10:36:17;101734.25;;;0.89;65.25
50592;BME280;36548;50.506;30.834;2023-01-25T10:37:34;101723.67;;;0.99;65.09
50592;BME280;36548;50.506;30.834;2023-01-25T10:38:45;101727.23;;;0.89;64.90
50592;BME280;36548;50.506;30.834;2023-01-25T10:42:32;101726.33;;;1.07;65.92
50592;BME280;36548;50.506;30.834;2023-01-25T10:43:42;101723.68;;;1.07;64.62
50592;BME280;36548;50.506;30.834;2023-01-25T10:44:50;101728.08;;;1.11;65.31
50592;BME280;36548;50.506;30.834;2023-01-25T10:46:00;101734.23;;;1.15;65.39
50592;BME280;36548;50.506;30.834;2023-01-25T10:47:17;101731.58;;;1.16;64.96
50592;BME280;36548;50.506;30.834;2023-01-25T10:48:34;101718.33;;;1.27;64.94
50592;BME280;36548;50.506;30.834;2023-01-25T10:49:53;101720.98;;;1.18;65.00
50592;BME280;36548;50.506;30.834;2023-01-25T10:51:04;101713.06;;;1.23;65.34
50592;BME280;36548;50.506;30.834;2023-01-25T10:52:16;101716.58;;;1.29;65.43
50592;BME280;36548;50.506;30.834;2023-01-25T10:53:38;101716.53;;;1.45;64.44
50592;BME280;36548;50.506;30.834;2023-01-25T10:55:01;101707.77;;;1.32;64.14
50592;BME280;36548;50.506;30.834;2023-01-25T10:57:21;101713.03;;;1.29;62.98
50592;BME280;36548;50.506;30.834;2023-01-25T10:58:33;101713.08;;;1.19;62.53
50592;BME280;36548;50.506;30.834;2023-01-25T10:59:51;101708.68;;;1.15;63.06
50592;BME280;36548;50.506;30.834;2023-01-25T11:01:01;101702.52;;;1.09;62.81
50592;BME280;36548;50.506;30.834;2023-01-25T11:03:52;101707.77;;;1.24;64.08
50592;BME280;36548;50.506;30.834;2023-01-25T11:05:30;101706.91;;;1.16;63.82
50592;BME280;36548;50.506;30.834;2023-01-25T11:06:45;101710.42;;;1.15;63.26
50592;BME280;36548;50.506;30.834;2023-01-25T11:09:38;101701.58;;;1.22;63.21
50592;BME280;36548;50.506;30.834;2023-01-25T11:10:49;101700.75;;;1.14;63.66
50592;BME280;36548;50.506;30.834;2023-01-25T11:14:47;101695.35;;;1.46;63.29
50592;BME280;36548;50.506;30.834;2023-01-25T11:17:27;101685.69;;;1.38;61.83
50592;BME280;36548;50.506;30.834;2023-01-25T11:18:53;101688.38;;;1.24;62.16
50592;BME280;36548;50.506;30.834;2023-01-25T11:20:16;101691.92;;;1.19;62.41
50592;BME280;36548;50.506;30.834;2023-01-25T11:21:34;101691.91;;;1.23;62.82
50592;BME280;36548;50.506;30.834;2023-01-25T11:25:29;101690.17;;;1.08;63.26
50592;BME280;36548;50.506;30.834;2023-01-25T11:26:46;101691.91;;;1.15;63.28
50592;BME280;36548;50.506;30.834;2023-01-25T11:29:22;101686.64;;;1.02;62.80
50592;BME280;36548;50.506;30.834;2023-01-25T11:30:30;101689.30;;;1.06;63.28
50592;BME280;36548;50.506;30.834;2023-01-25T11:31:52;101695.45;;;1.09;63.24
50592;BME280;36548;50.506;30.834;2023-01-25T11:33:03;101687.52;;;1.09;62.67
50592;BME280;36548;50.506;30.834;2023-01-25T11:34:25;101679.57;;;1.18;62.47
50592;BME280;36548;50.506;30.834;2023-01-25T11:35:35;101676.94;;;1.09;62.89
50592;BME280;36548;50.506;30.834;2023-01-25T11:37:12;101681.33;;;1.21;62.56
50592;BME280;36548;50.506;30.834;2023-01-25T11:38:21;101687.52;;;1.09;62.44
50592;BME280;36548;50.506;30.834;2023-01-25T11:43:00;101678.71;;;1.02;62.45
50592;BME280;36548;50.506;30.834;2023-01-25T11:47:27;101678.73;;;1.06;61.99
50592;BME280;36548;50.506;30.834;2023-01-25T11:51:54;101661.08;;;1.14;62.76
50592;BME280;36548;50.506;30.834;2023-01-25T11:57:41;101657.50;;;1.24;62.59
50592;BME280;36548;50.506;30.834;2023-01-25T12:06:43;101664.62;;;1.10;62.92
50592;BME280;36548;50.506;30.834;2023-01-25T12:12:18;101659.27;;;1.21;63.98
50592;BME280;36548;50.506;30.834;2023-01-25T12:16:59;101652.20;;;1.32;61.67
50592;BME280;36548;50.506;30.834;2023-01-25T12:18:27;101653.99;;;1.17;61.94
50592;BME280;36548;50.506;30.834;2023-01-25T12:21:38;101649.58;;;1.16;62.44
50592;BME280;36548;50.506;30.834;2023-01-25T12:26:15;101649.58;;;1.16;63.61
50592;BME280;36548;50.506;30.834;2023-01-25T12:29:12;101646.94;;;1.23;62.16
50592;BME280;36548;50.506;30.834;2023-01-25T12:30:39;101649.56;;;1.26;62.78
50592;BME280;36548;50.506;30.834;2023-01-25T12:31:56;101664.55;;;1.28;63.02
50592;BME280;36548;50.506;30.834;2023-01-25T12:33:14;101659.23;;;1.33;63.01
50592;BME280;36548;50.506;30.834;2023-01-25T12:34:38;101651.27;;;1.36;63.04
50592;BME280;36548;50.506;30.834;2023-01-25T12:35:56;101646.00;;;1.38;62.66
50592;BME280;36548;50.506;30.834;2023-01-25T12:43:03;101643.41;;;1.25;62.57
50592;BME280;36548;50.506;30.834;2023-01-25T12:45:55;101644.27;;;1.32;63.16
50592;BME280;36548;50.506;30.834;2023-01-25T12:48:50;101650.41;;;1.35;63.30
50592;BME280;36548;50.506;30.834;2023-01-25T12:50:24;101654.87;;;1.23;62.97
50592;BME280;36548;50.506;30.834;2023-01-25T12:51:37;101655.77;;;1.17;63.00
50592;BME280;36548;50.506;30.834;2023-01-25T12:52:50;101647.84;;;1.15;63.39
50592;BME280;36548;50.506;30.834;2023-01-25T12:54:24;101656.63;;;1.27;63.87
50592;BME280;36548;50.506;30.834;2023-01-25T12:55:33;101650.47;;;1.18;63.87
50592;BME280;36548;50.506;30.834;2023-01-25T12:56:52;101652.24;;;1.13;62.86
50592;BME280;36548;50.506;30.834;2023-01-25T12:58:37;101649.61;;;1.12;63.19
50592;BME280;36548;50.506;30.834;2023-01-25T13:02:46;101633.73;;;1.19;64.22
50592;BME280;36548;50.506;30.834;2023-01-25T13:05:45;101639.85;;;1.31;63.60
50592;BME280;36548;50.506;30.834;2023-01-25T13:10:15;101640.67;;;1.44;62.89
50592;BME280;36548;50.506;30.834;2023-01-25T13:11:38;101643.31;;;1.44;62.77